Omaha, Nebraska
Current Conditions -  °F | °C
As of 11:52 AM on Sunday 21 Dec 2014 (Local Time) from KOMA Reporting Station
Haze Haze  
Wind Chill: 32°   Ceiling: 800
Heat Index: 41°   Visibility: 6mi
Dew Point: 38°   Wind: 20mph
Humidity: 89%   Direction: 180°S
Pressure: 29.83"   Gusts: 28mph
Location:  41.26°N, 95.94°W
Report Text: KOMA 211752Z 18017G24KT 6SM BR OVC008 05/03 A2983 RMK AO2 SLP107 T00500033 10050 20028 58016
Loading
Personal Weather Stations






























Interactive Weather Map New forecast layout! Learn more

10-Day Weather Forecast

Advertisements
Track Severe Weather on mobile